Time;durP1;ratioP1;P1;durP2;ratioP2;P2;SDS_P1;SDS_P2;PMS_P1;PMS_P2;Temp;Humidity;BMP_temperature;BMP_pressure;BME280_temperature;BME280_humidity;BME280_pressure;Samples;Min_cycle;Max_cycle;Signal;HPM_P1;HPM_P2
2022/03/26 00:00:55;;;;;;;25.00;16.13;;;5.70;43.20;;;;;;5052290;28;20240;-62
2022/03/26 00:03:22;;;;;;;31.00;16.92;;;5.70;44.20;;;;;;5051326;28;20195;-62
2022/03/26 00:05:51;;;;;;;26.55;15.82;;;5.60;44.70;;;;;;5052348;28;20244;-64
2022/03/26 00:08:17;;;;;;;24.25;15.00;;;5.60;45.10;;;;;;5050164;28;20711;-62
2022/03/26 00:10:45;;;;;;;25.13;16.20;;;5.60;45.60;;;;;;5052323;28;20237;-63
2022/03/26 00:13:13;;;;;;;25.35;15.82;;;5.60;45.10;;;;;;5052889;28;20211;-62
2022/03/26 00:15:42;;;;;;;24.33;15.45;;;5.60;45.20;;;;;;5052175;28;20202;-62
2022/03/26 00:18:09;;;;;;;22.33;16.60;;;5.60;45.00;;;;;;5052288;28;20205;-62
2022/03/26 00:20:36;;;;;;;24.63;15.90;;;5.70;45.50;;;;;;5051876;28;20260;-62
2022/03/26 00:23:03;;;;;;;25.30;15.63;;;5.70;45.60;;;;;;5051667;28;20190;-63
2022/03/26 00:25:30;;;;;;;27.13;16.10;;;5.70;45.70;;;;;;5052961;28;20193;-62
2022/03/26 00:27:57;;;;;;;30.73;17.40;;;5.60;45.70;;;;;;5051743;28;20205;-62
2022/03/26 00:30:24;;;;;;;24.85;14.30;;;5.70;46.00;;;;;;5052059;28;20198;-62
2022/03/26 00:32:52;;;;;;;23.00;14.32;;;5.70;45.50;;;;;;5051338;28;20210;-62
2022/03/26 00:35:19;;;;;;;25.63;14.65;;;5.60;45.70;;;;;;5052001;28;20602;-65
2022/03/26 00:37:46;;;;;;;28.10;16.23;;;5.60;45.50;;;;;;5054763;28;20186;-62
2022/03/26 00:40:14;;;;;;;24.55;14.98;;;5.60;45.20;;;;;;5051513;28;20599;-62
2022/03/26 00:42:41;;;;;;;24.15;15.68;;;5.70;45.90;;;;;;5051790;28;20226;-62
2022/03/26 00:45:09;;;;;;;26.23;16.23;;;5.60;45.30;;;;;;5051420;28;20641;-62
2022/03/26 00:47:36;;;;;;;25.20;15.82;;;5.50;46.00;;;;;;5055076;28;20655;-62
2022/03/26 00:50:06;;;;;;;32.08;15.65;;;5.40;45.80;;;;;;5050937;28;20240;-64
2022/03/26 00:52:34;;;;;;;25.95;15.60;;;5.40;46.00;;;;;;5047548;28;20637;-62
2022/03/26 00:55:01;;;;;;;23.35;14.20;;;5.30;45.90;;;;;;5052996;28;20218;-62
2022/03/26 00:57:28;;;;;;;28.77;16.85;;;5.40;45.80;;;;;;5062191;28;20224;-63
2022/03/26 00:59:58;;;;;;;24.85;15.65;;;5.40;46.00;;;;;;5072674;28;20186;-62
2022/03/26 01:02:25;;;;;;;25.98;16.15;;;5.50;46.30;;;;;;5062286;28;20653;-62
2022/03/26 01:04:52;;;;;;;24.08;15.35;;;5.50;46.20;;;;;;5059165;28;20181;-62
2022/03/26 01:07:20;;;;;;;36.38;18.55;;;5.50;46.90;;;;;;5072814;28;20191;-62
2022/03/26 01:09:48;;;;;;;35.42;20.30;;;5.60;46.40;;;;;;5067000;28;20221;-63
2022/03/26 01:12:15;;;;;;;35.33;19.60;;;5.50;46.30;;;;;;5052987;28;20277;-62
2022/03/26 01:14:42;;;;;;;34.08;18.65;;;5.50;46.20;;;;;;5055599;28;20212;-62
2022/03/26 01:17:09;;;;;;;30.83;16.77;;;5.50;46.20;;;;;;5072683;28;20657;-62
2022/03/26 01:19:36;;;;;;;35.08;21.77;;;5.40;46.30;;;;;;5069511;28;20185;-62
2022/03/26 01:22:03;;;;;;;36.85;20.85;;;5.40;45.60;;;;;;5052646;28;20256;-62
2022/03/26 01:24:32;;;;;;;27.35;17.90;;;5.30;45.20;;;;;;5053773;28;20198;-66
2022/03/26 01:26:59;;;;;;;33.38;18.13;;;5.20;45.00;;;;;;5072291;28;20274;-62
2022/03/26 01:29:26;;;;;;;25.25;16.02;;;5.10;45.50;;;;;;5071891;28;20247;-64
2022/03/26 01:31:53;;;;;;;21.42;15.43;;;5.10;45.30;;;;;;5052668;28;20288;-62
2022/03/26 01:34:22;;;;;;;31.52;16.48;;;5.00;44.60;;;;;;5052108;28;20621;-63
2022/03/26 01:36:49;;;;;;;25.77;15.00;;;4.80;44.90;;;;;;5053438;28;20187;-62
2022/03/26 01:39:17;;;;;;;22.60;14.48;;;4.80;45.60;;;;;;5052279;28;20194;-63
2022/03/26 01:41:45;;;;;;;19.85;13.40;;;4.70;45.70;;;;;;5069958;28;20182;-62
2022/03/26 01:44:13;;;;;;;22.42;12.98;;;4.60;45.60;;;;;;5072082;28;20194;-62
2022/03/26 01:46:47;;;;;;;22.50;13.52;;;4.60;45.50;;;;;;5052742;28;20218;-63
2022/03/26 01:49:15;;;;;;;19.02;12.98;;;4.60;45.10;;;;;;5052380;28;20189;-62
2022/03/26 01:51:42;;;;;;;24.83;15.23;;;4.50;45.40;;;;;;5070776;28;20182;-62
2022/03/26 01:54:13;;;;;;;22.67;13.57;;;4.40;45.10;;;;;;5072256;28;20214;-62
2022/03/26 01:56:40;;;;;;;24.00;14.75;;;4.30;45.80;;;;;;5053030;28;20186;-62
2022/03/26 01:59:10;;;;;;;20.25;14.30;;;4.30;46.60;;;;;;5060251;28;20189;-62
2022/03/26 02:01:38;;;;;;;30.60;14.73;;;4.20;46.90;;;;;;5072139;28;20198;-62
2022/03/26 02:04:08;;;;;;;28.08;16.08;;;4.20;47.20;;;;;;5064519;28;20195;-62
2022/03/26 02:06:37;;;;;;;27.67;17.15;;;4.20;47.70;;;;;;5069576;28;20719;-62
2022/03/26 02:09:06;;;;;;;23.10;14.40;;;4.20;47.90;;;;;;5065100;28;20644;-62
2022/03/26 02:11:33;;;;;;;30.10;16.92;;;4.20;47.80;;;;;;5052134;28;20194;-62
2022/03/26 02:14:02;;;;;;;30.33;15.25;;;4.10;47.90;;;;;;5057400;28;20205;-62
2022/03/26 02:16:32;;;;;;;25.60;16.42;;;4.10;47.70;;;;;;5054771;28;20186;-62
2022/03/26 02:18:59;;;;;;;28.27;15.88;;;4.00;47.60;;;;;;5056454;28;20193;-62
2022/03/26 02:21:28;;;;;;;26.55;15.93;;;4.00;48.10;;;;;;5071665;28;20190;-62
2022/03/26 02:23:55;;;;;;;23.65;14.80;;;4.00;48.30;;;;;;5070110;28;20196;-62
2022/03/26 02:26:26;;;;;;;29.85;15.82;;;4.00;48.10;;;;;;5074334;28;20243;-62
2022/03/26 02:28:54;;;;;;;25.05;15.65;;;3.90;48.80;;;;;;5064620;28;20185;-63
2022/03/26 02:31:21;;;;;;;32.10;17.55;;;3.80;48.90;;;;;;5075706;28;20197;-63
2022/03/26 02:33:50;;;;;;;26.77;14.85;;;3.80;50.00;;;;;;5062069;28;20309;-65
2022/03/26 02:36:17;;;;;;;22.85;13.90;;;3.90;50.10;;;;;;5055993;28;20194;-62
2022/03/26 02:38:45;;;;;;;27.52;15.07;;;3.90;50.00;;;;;;5065213;28;20189;-62
2022/03/26 02:41:12;;;;;;;27.55;15.93;;;3.90;49.20;;;;;;5056038;28;20198;-62
2022/03/26 02:43:39;;;;;;;27.83;16.08;;;3.90;49.50;;;;;;5066317;28;20243;-68
2022/03/26 02:46:06;;;;;;;24.02;15.27;;;3.80;49.90;;;;;;5075268;28;20194;-62
2022/03/26 02:48:34;;;;;;;26.17;15.27;;;3.80;49.90;;;;;;5065678;28;20650;-62
2022/03/26 02:51:01;;;;;;;26.35;16.05;;;3.80;49.80;;;;;;5075526;28;20567;-62
2022/03/26 02:53:30;;;;;;;26.90;15.18;;;3.80;49.70;;;;;;5066930;28;20649;-62
2022/03/26 02:55:59;;;;;;;27.70;15.27;;;3.70;49.10;;;;;;5054948;28;20240;-62
2022/03/26 02:58:26;;;;;;;26.85;14.82;;;3.70;48.80;;;;;;5062154;28;20189;-62
2022/03/26 03:00:53;;;;;;;22.20;14.65;;;3.70;49.40;;;;;;5055445;28;20199;-63
2022/03/26 03:03:20;;;;;;;30.52;16.52;;;3.60;49.80;;;;;;5060789;28;20239;-63
2022/03/26 03:05:47;;;;;;;18.95;12.27;;;3.50;50.80;;;;;;5075402;28;20194;-62
2022/03/26 03:08:15;;;;;;;26.38;16.58;;;3.40;51.10;;;;;;5070190;28;20259;-62
2022/03/26 03:10:42;;;;;;;25.25;15.82;;;3.40;51.20;;;;;;5072463;28;20552;-62
2022/03/26 03:13:11;;;;;;;26.40;16.02;;;3.40;51.30;;;;;;5071277;28;20187;-62
2022/03/26 03:15:38;;;;;;;27.33;15.38;;;3.40;50.90;;;;;;5054923;28;20248;-62
2022/03/26 03:18:06;;;;;;;21.48;14.38;;;3.40;51.30;;;;;;5056077;28;20259;-62
2022/03/26 03:20:33;;;;;;;21.23;14.43;;;3.40;51.10;;;;;;5065821;28;20213;-64
2022/03/26 03:23:00;;;;;;;24.52;15.73;;;3.40;51.80;;;;;;5054792;28;20208;-62
2022/03/26 03:25:29;;;;;;;20.45;13.45;;;3.40;51.60;;;;;;5054496;28;20198;-62
2022/03/26 03:27:58;;;;;;;22.52;15.38;;;3.50;51.50;;;;;;5034890;28;20191;-64
2022/03/26 03:30:27;;;;;;;27.75;16.33;;;3.40;50.80;;;;;;5064722;28;20649;-62
2022/03/26 03:32:54;;;;;;;22.20;13.93;;;3.30;51.40;;;;;;5063042;28;20220;-62
2022/03/26 03:35:22;;;;;;;27.48;16.02;;;3.20;51.80;;;;;;5074543;28;20692;-61
2022/03/26 03:37:50;;;;;;;25.17;13.98;;;3.20;52.30;;;;;;5061717;28;20183;-62
2022/03/26 03:40:18;;;;;;;24.98;14.88;;;3.20;52.60;;;;;;5059014;28;20186;-62
2022/03/26 03:42:46;;;;;;;23.52;14.95;;;3.20;52.70;;;;;;5067897;28;20639;-63
2022/03/26 03:45:13;;;;;;;25.77;15.40;;;3.20;52.30;;;;;;5057650;28;20215;-62
2022/03/26 03:47:42;;;;;;;23.92;15.07;;;3.10;53.10;;;;;;5074503;28;20253;-62
2022/03/26 03:50:09;;;;;;;28.58;16.20;;;3.10;53.40;;;;;;5071643;28;20193;-62
2022/03/26 03:52:37;;;;;;;23.95;14.80;;;3.10;53.30;;;;;;5070513;28;20631;-62
2022/03/26 03:55:04;;;;;;;22.80;15.10;;;3.10;53.00;;;;;;5074023;28;20222;-62
2022/03/26 03:57:31;;;;;;;23.33;15.57;;;3.10;53.70;;;;;;5073738;28;20194;-64
2022/03/26 03:59:59;;;;;;;27.20;14.63;;;3.10;53.30;;;;;;5034174;28;20197;-62
2022/03/26 04:02:26;;;;;;;22.27;13.93;;;3.10;52.40;;;;;;5071757;28;20185;-62
2022/03/26 04:04:54;;;;;;;22.50;13.85;;;3.10;52.60;;;;;;5074710;28;20266;-65
2022/03/26 04:07:21;;;;;;;24.48;13.68;;;3.00;52.90;;;;;;5056213;28;20190;-63
2022/03/26 04:09:48;;;;;;;20.00;13.23;;;3.10;53.80;;;;;;5066763;28;20193;-62
2022/03/26 04:12:15;;;;;;;19.98;12.75;;;3.00;53.50;;;;;;5057412;28;20190;-62
2022/03/26 04:14:43;;;;;;;26.00;16.08;;;3.00;53.30;;;;;;5054571;28;20218;-67
2022/03/26 04:17:12;;;;;;;28.58;17.00;;;2.90;54.00;;;;;;5070939;28;20197;-62
2022/03/26 04:19:39;;;;;;;26.52;16.83;;;2.90;53.80;;;;;;5054176;28;20233;-62
2022/03/26 04:22:08;;;;;;;23.50;14.30;;;2.90;53.60;;;;;;5054919;28;20206;-62
2022/03/26 04:24:36;;;;;;;24.05;14.15;;;2.90;53.90;;;;;;5073889;28;20190;-62
2022/03/26 04:27:03;;;;;;;24.27;15.48;;;3.00;54.00;;;;;;5054828;28;20194;-62
2022/03/26 04:29:31;;;;;;;21.73;12.98;;;2.90;54.00;;;;;;5053901;28;20240;-62
2022/03/26 04:31:58;;;;;;;22.63;15.27;;;2.90;54.10;;;;;;5071221;28;20264;-62
2022/03/26 04:34:25;;;;;;;21.25;13.13;;;2.90;53.80;;;;;;5073403;28;20225;-63
2022/03/26 04:36:52;;;;;;;25.33;14.07;;;2.90;53.00;;;;;;5057058;28;20244;-62
2022/03/26 04:39:21;;;;;;;21.25;13.15;;;2.90;52.80;;;;;;5062549;28;20648;-64
2022/03/26 04:41:48;;;;;;;21.48;13.02;;;2.80;51.80;;;;;;5073532;28;20189;-62
2022/03/26 04:44:16;;;;;;;21.27;13.60;;;2.80;51.00;;;;;;5064744;28;20190;-62
2022/03/26 04:46:42;;;;;;;20.30;14.25;;;2.80;51.20;;;;;;5059578;28;20664;-62
2022/03/26 04:49:09;;;;;;;20.77;12.73;;;2.70;51.40;;;;;;5053169;28;20190;-62
2022/03/26 04:51:36;;;;;;;23.20;13.10;;;2.70;52.20;;;;;;5058341;28;20648;-62
2022/03/26 04:54:04;;;;;;;21.10;11.85;;;2.70;52.10;;;;;;5071887;28;20186;-62
2022/03/26 04:56:32;;;;;;;21.75;12.35;;;2.70;52.10;;;;;;5058506;28;20632;-62
2022/03/26 04:58:59;;;;;;;27.00;13.52;;;2.70;52.50;;;;;;5073298;28;20190;-63
2022/03/26 05:01:26;;;;;;;18.13;11.82;;;2.80;53.10;;;;;;5072490;28;20200;-62
2022/03/26 05:03:53;;;;;;;20.30;12.73;;;2.80;53.10;;;;;;5073373;28;20550;-62
2022/03/26 05:06:20;;;;;;;23.33;13.18;;;2.80;52.60;;;;;;5057730;28;20242;-62
2022/03/26 05:08:48;;;;;;;20.60;12.88;;;2.80;52.80;;;;;;5073108;28;20198;-62
2022/03/26 05:11:15;;;;;;;20.13;13.77;;;2.70;52.30;;;;;;5055832;28;20186;-62
2022/03/26 05:13:44;;;;;;;21.50;13.95;;;2.80;52.90;;;;;;5052838;28;20202;-62
2022/03/26 05:16:11;;;;;;;23.48;13.40;;;2.80;53.10;;;;;;5065657;28;20217;-62
2022/03/26 05:18:38;;;;;;;20.50;13.75;;;2.80;54.10;;;;;;5052856;28;20194;-62
2022/03/26 05:21:07;;;;;;;21.17;14.60;;;2.70;54.00;;;;;;5066840;28;20185;-62
2022/03/26 05:23:35;;;;;;;20.30;13.18;;;2.70;54.20;;;;;;5072776;28;20194;-61
2022/03/26 05:26:02;;;;;;;25.83;13.23;;;2.70;53.80;;;;;;5059243;28;20190;-62
2022/03/26 05:28:29;;;;;;;22.45;13.65;;;2.70;54.20;;;;;;5059492;28;20192;-62
2022/03/26 05:30:57;;;;;;;19.27;13.35;;;2.70;54.60;;;;;;5071763;28;20197;-63
2022/03/26 05:33:24;;;;;;;23.88;15.30;;;2.60;54.70;;;;;;5065728;28;20778;-63
2022/03/26 05:35:52;;;;;;;20.38;12.77;;;2.50;55.10;;;;;;5052427;28;20283;-63
2022/03/26 05:38:19;;;;;;;24.60;14.48;;;2.50;55.20;;;;;;5057590;28;20196;-62
2022/03/26 05:40:46;;;;;;;19.27;13.95;;;2.50;55.50;;;;;;5072705;28;20201;-62
2022/03/26 05:43:13;;;;;;;20.95;13.75;;;2.50;55.40;;;;;;5068747;28;20277;-61
2022/03/26 05:45:40;;;;;;;20.42;13.45;;;2.60;55.40;;;;;;5062654;28;20243;-62
2022/03/26 05:48:09;;;;;;;19.65;12.15;;;2.60;55.30;;;;;;5070326;28;20196;-62
2022/03/26 05:50:36;;;;;;;24.55;13.70;;;2.60;55.70;;;;;;5052512;28;20302;-61
2022/03/26 05:53:04;;;;;;;19.13;12.82;;;2.70;56.00;;;;;;5052928;28;20187;-62
2022/03/26 05:55:31;;;;;;;18.83;12.35;;;2.70;55.70;;;;;;5063930;28;20685;-62
2022/03/26 05:57:58;;;;;;;19.50;13.05;;;2.80;56.10;;;;;;5052617;28;20615;-62
2022/03/26 06:00:25;;;;;;;21.58;11.85;;;2.90;56.10;;;;;;5052050;28;20229;-62
2022/03/26 06:02:52;;;;;;;20.73;13.27;;;3.10;56.20;;;;;;5052446;28;20200;-62
2022/03/26 06:05:21;;;;;;;27.92;13.48;;;3.20;56.20;;;;;;5062699;28;20186;-62
2022/03/26 06:07:50;;;;;;;20.65;13.77;;;3.30;56.10;;;;;;5052969;28;20524;-62
2022/03/26 06:10:17;;;;;;;27.83;14.88;;;3.40;56.40;;;;;;5069518;28;20217;-63
2022/03/26 06:12:45;;;;;;;26.10;15.15;;;3.60;56.00;;;;;;5072337;28;20206;-63
2022/03/26 06:15:12;;;;;;;26.10;15.45;;;3.70;55.60;;;;;;5060471;28;20214;-62
2022/03/26 06:17:39;;;;;;;25.13;14.65;;;3.90;55.30;;;;;;5072337;28;20200;-63
2022/03/26 06:20:06;;;;;;;28.20;15.25;;;4.00;55.20;;;;;;5057237;28;20263;-63
2022/03/26 06:22:35;;;;;;;19.83;12.90;;;4.10;55.40;;;;;;5056025;28;20231;-62
2022/03/26 06:25:03;;;;;;;22.45;13.50;;;4.30;55.50;;;;;;5068833;28;20182;-62
2022/03/26 06:27:30;;;;;;;22.25;15.15;;;4.50;55.30;;;;;;5052309;28;20580;-63
2022/03/26 06:29:57;;;;;;;22.17;13.30;;;4.70;54.90;;;;;;5053728;28;20649;-62
2022/03/26 06:32:24;;;;;;;23.45;14.60;;;4.80;54.80;;;;;;5072081;28;20194;-63
2022/03/26 06:34:51;;;;;;;19.50;13.10;;;5.00;55.00;;;;;;5070383;28;20189;-63
2022/03/26 06:37:20;;;;;;;21.90;13.45;;;5.20;54.70;;;;;;5052160;28;20201;-62
2022/03/26 06:39:49;;;;;;;20.40;13.65;;;5.40;53.60;;;;;;5051977;28;20191;-63
2022/03/26 06:42:16;;;;;;;17.08;12.63;;;5.50;53.80;;;;;;5072531;28;20592;-62
2022/03/26 06:44:43;;;;;;;17.80;12.85;;;5.60;54.40;;;;;;5069521;28;20564;-62
2022/03/26 06:47:10;;;;;;;20.92;13.75;;;5.90;54.40;;;;;;5052025;28;20187;-62
2022/03/26 06:49:37;;;;;;;24.73;16.42;;;6.10;53.80;;;;;;5052275;28;20193;-62
2022/03/26 06:52:05;;;;;;;21.92;14.90;;;6.20;53.30;;;;;;5072009;28;20197;-63
2022/03/26 06:54:32;;;;;;;26.25;17.08;;;6.40;52.90;;;;;;5071112;28;20221;-63
2022/03/26 06:57:01;;;;;;;21.30;14.65;;;6.60;52.10;;;;;;5051806;28;20218;-63
2022/03/26 06:59:28;;;;;;;25.45;15.43;;;6.90;52.20;;;;;;5051887;28;20633;-63
2022/03/26 07:01:55;;;;;;;23.30;15.02;;;7.20;52.40;;;;;;5071070;28;20198;-63
2022/03/26 07:04:22;;;;;;;22.05;14.65;;;7.60;51.10;;;;;;5072041;28;20186;-63
2022/03/26 07:06:49;;;;;;;23.10;16.13;;;8.00;50.10;;;;;;5052012;28;20225;-62
2022/03/26 07:09:16;;;;;;;30.08;20.90;;;8.50;50.30;;;;;;5051955;28;20592;-62
2022/03/26 07:11:43;;;;;;;25.95;17.35;;;9.10;50.00;;;;;;5069117;28;21112;-62
2022/03/26 07:14:11;;;;;;;25.55;13.15;;;9.70;48.00;;;;;;5075152;28;20555;-63
2022/03/26 07:16:38;;;;;;;19.10;13.70;;;10.50;46.50;;;;;;5057091;28;20318;-64
2022/03/26 07:19:05;;;;;;;22.77;15.00;;;11.50;46.20;;;;;;5055312;28;20198;-63
2022/03/26 07:21:32;;;;;;;21.95;15.15;;;12.60;45.00;;;;;;5066543;28;20186;-64
2022/03/26 07:23:59;;;;;;;17.25;13.57;;;13.80;43.40;;;;;;5055400;28;20198;-63
2022/03/26 07:26:26;;;;;;;20.85;15.55;;;15.30;38.10;;;;;;5054960;28;20664;-63
2022/03/26 07:28:55;;;;;;;24.25;14.50;;;17.30;36.50;;;;;;5068291;28;20190;-63
2022/03/26 07:31:23;;;;;;;20.10;14.57;;;19.00;32.40;;;;;;5065676;28;20194;-63
2022/03/26 07:33:50;;;;;;;18.35;14.77;;;20.60;29.60;;;;;;5055010;28;20284;-64
2022/03/26 07:36:17;;;;;;;22.67;16.97;;;21.80;26.20;;;;;;5072989;28;20279;-64
2022/03/26 07:38:45;;;;;;;21.10;16.90;;;22.90;23.70;;;;;;5073392;28;20451;-63
2022/03/26 07:41:12;;;;;;;20.33;16.23;;;23.70;24.10;;;;;;5051833;28;21046;-64
2022/03/26 07:43:40;;;;;;;23.20;18.43;;;24.80;23.50;;;;;;5054837;28;20444;-64
2022/03/26 07:46:07;;;;;;;20.07;17.13;;;25.80;20.60;;;;;;5034898;28;20446;-64
2022/03/26 07:48:35;;;;;;;19.63;17.53;;;26.90;21.50;;;;;;5034754;28;20445;-64
2022/03/26 07:51:02;;;;;;;18.03;15.10;;;28.00;20.30;;;;;;5072643;28;20934;-64
2022/03/26 07:53:29;;;;;;;18.67;16.53;;;29.10;19.70;;;;;;5074732;28;20795;-65
2022/03/26 07:55:57;;;;;;;19.03;17.03;;;30.10;19.00;;;;;;5055398;28;20476;-64
2022/03/26 07:58:24;;;;;;;18.83;16.70;;;31.10;17.40;;;;;;5054595;28;20476;-64
2022/03/26 08:01:03;;;;;;;20.23;18.07;;;32.00;15.30;;;;;;5069849;28;20467;-64
2022/03/26 08:03:30;;;;;;;21.03;17.87;;;32.80;14.60;;;;;;5060345;28;20934;-62
2022/03/26 08:05:59;;;;;;;21.97;19.60;;;33.40;14.70;;;;;;5074545;28;20547;-62
2022/03/26 08:08:26;;;;;;;20.53;18.40;;;34.20;13.70;;;;;;5069326;28;20441;-62
2022/03/26 08:10:53;;;;;;;22.93;18.93;;;34.90;13.40;;;;;;5054514;28;20487;-62
2022/03/26 08:13:20;;;;;;;22.93;18.10;;;35.60;13.00;;;;;;5074303;28;20953;-62
2022/03/26 08:15:47;;;;;;;21.80;19.63;;;36.20;12.30;;;;;;5074205;28;20492;-62
2022/03/26 08:18:15;;;;;;;20.67;17.67;;;36.70;11.30;;;;;;5054025;28;20443;-62
2022/03/26 08:20:42;;;;;;;21.47;19.40;;;37.20;10.90;;;;;;5054127;28;20523;-62
2022/03/26 08:23:10;;;;;;;22.60;20.20;;;37.70;11.10;;;;;;5072473;28;20493;-62
2022/03/26 08:28:22;;;;;;;21.27;19.37;;;38.70;9.80;;;;;;5034232;28;20475;-62
2022/03/26 08:30:49;;;;;;;22.27;20.30;;;39.30;9.50;;;;;;5033772;28;20477;-65
2022/03/26 08:33:16;;;;;;;20.97;19.03;;;39.70;9.30;;;;;;5073156;28;20462;-62
2022/03/26 08:35:43;;;;;;;19.87;18.00;;;40.10;9.00;;;;;;5073875;28;20489;-62
2022/03/26 08:38:12;;;;;;;20.87;18.97;;;40.60;8.70;;;;;;5054666;28;20432;-62
2022/03/26 08:40:39;;;;;;;22.73;20.63;;;40.90;8.00;;;;;;5053567;28;20440;-62
2022/03/26 08:43:07;;;;;;;20.27;18.40;;;41.20;8.20;;;;;;5071452;28;20440;-62
2022/03/26 08:45:36;;;;;;;19.77;17.87;;;41.50;7.10;;;;;;5073586;28;20527;-64
2022/03/26 08:48:04;;;;;;;21.73;19.93;;;41.80;7.40;;;;;;5055964;28;20800;-63
2022/03/26 08:50:31;;;;;;;18.53;16.90;;;42.30;7.60;;;;;;5062708;28;20436;-62
2022/03/26 08:52:58;;;;;;;18.23;16.63;;;42.80;7.00;;;;;;5056028;28;20429;-62
2022/03/26 08:55:26;;;;;;;19.63;17.80;;;43.10;6.70;;;;;;5060917;28;20446;-63
2022/03/26 08:57:53;;;;;;;18.47;16.67;;;43.50;7.00;;;;;;5067809;28;20444;-62
2022/03/26 09:00:21;;;;;;;16.83;15.37;;;43.90;6.20;;;;;;5054088;28;20464;-63
2022/03/26 09:02:48;;;;;;;18.93;17.13;;;44.40;6.30;;;;;;5056863;28;20439;-62
2022/03/26 09:05:15;;;;;;;18.97;17.03;;;44.80;5.80;;;;;;5055957;28;20444;-63
2022/03/26 09:07:43;;;;;;;28.07;25.17;;;45.20;5.90;;;;;;5057914;28;20512;-62
2022/03/26 09:10:10;;;;;;;25.87;23.30;;;45.50;5.70;;;;;;5052006;28;20471;-62
2022/03/26 09:12:39;;;;;;;21.80;19.70;;;45.70;5.70;;;;;;5053419;28;20842;-63
2022/03/26 09:15:07;;;;;;;21.23;19.23;;;45.90;5.40;;;;;;5053568;28;20445;-63
2022/03/26 09:17:35;;;;;;;22.50;20.53;;;45.90;5.50;;;;;;5053463;28;20472;-64
2022/03/26 09:20:01;;;;;;;22.97;20.67;;;46.10;5.30;;;;;;5053180;28;20481;-64
2022/03/26 09:22:29;;;;;;;21.83;19.93;;;46.30;5.40;;;;;;5054013;28;20487;-63
2022/03/26 09:24:56;;;;;;;21.47;19.37;;;46.70;5.30;;;;;;5048319;28;20846;-71
2022/03/26 09:27:29;;;;;;;23.10;21.00;;;46.60;5.50;;;;;;5031329;28;20598;-63
2022/03/26 09:29:58;;;;;;;21.90;20.07;;;47.00;5.30;;;;;;5032843;28;20458;-63
2022/03/26 09:32:25;;;;;;;21.40;19.50;;;47.50;5.20;;;;;;5070981;28;20466;-69
2022/03/26 09:34:59;;;;;;;22.13;20.33;;;47.90;4.80;;;;;;5055813;28;20978;-64
2022/03/26 09:37:26;;;;;;;22.50;20.40;;;48.30;5.50;;;;;;5052341;28;20437;-64
2022/03/26 09:39:54;;;;;;;22.43;20.53;;;48.60;4.80;;;;;;5053553;28;21014;-64
2022/03/26 09:42:22;;;;;;;20.60;18.90;;;48.80;5.10;;;;;;5052400;28;20450;-63
2022/03/26 09:44:51;;;;;;;22.07;20.27;;;49.20;4.70;;;;;;5050669;28;20448;-63
2022/03/26 09:47:19;;;;;;;19.40;17.57;;;49.50;4.60;;;;;;5051725;28;20480;-63
2022/03/26 09:49:46;;;;;;;20.10;18.30;;;49.60;4.70;;;;;;5066036;28;20768;-63
2022/03/26 09:52:14;;;;;;;21.37;19.57;;;49.70;4.40;;;;;;5052550;28;20476;-63
2022/03/26 09:54:41;;;;;;;21.60;19.60;;;49.80;4.40;;;;;;5051788;28;20792;-67
2022/03/26 09:57:09;;;;;;;21.57;19.30;;;50.10;4.50;;;;;;5052119;28;20441;-63
2022/03/26 09:59:36;;;;;;;20.77;19.07;;;50.30;4.30;;;;;;5066084;28;20935;-63
2022/03/26 10:02:04;;;;;;;21.20;19.20;;;50.60;4.30;;;;;;5060492;28;20444;-63
2022/03/26 10:04:39;;;;;;;23.50;21.27;;;50.80;4.30;;;;;;5054464;28;20994;-63
2022/03/26 10:07:07;;;;;;;23.77;21.77;;;51.10;4.60;;;;;;5041243;28;20478;-63
2022/03/26 10:09:36;;;;;;;22.57;20.47;;;51.40;4.20;;;;;;5052213;28;20452;-63
2022/03/26 10:12:05;;;;;;;20.67;18.87;;;51.70;3.80;;;;;;5051324;28;20437;-63
2022/03/26 10:14:43;;;;;;;21.50;19.50;;;51.50;3.60;;;;;;5051656;28;20441;-62
2022/03/26 10:17:13;;;;;;;20.83;18.70;;;51.70;3.80;;;;;;5051626;28;20494;-63
2022/03/26 10:19:45;;;;;;;19.47;17.73;;;51.80;3.30;;;;;;5051335;28;20436;-63
2022/03/26 10:22:33;;;;;;;20.13;18.20;;;52.20;3.50;;;;;;5053055;28;20445;-62
2022/03/26 10:25:04;;;;;;;20.50;18.50;;;52.40;3.20;;;;;;5040453;28;20939;-63
2022/03/26 10:27:49;;;;;;;22.53;20.53;;;52.20;2.80;;;;;;5053146;28;20545;-63
2022/03/26 10:32:38;;;;;;;23.00;21.10;;;51.90;2.80;;;;;;5069902;28;20448;-63
2022/03/26 10:33:18;;;;;;;22.93;20.90;;;52.20;2.90;;;;;;5056431;28;20895;-63
2022/03/26 10:35:54;;;;;;;22.07;20.27;;;52.30;3.10;;;;;;5061048;28;20485;-63
2022/03/26 10:38:27;;;;;;;22.17;20.27;;;52.20;2.50;;;;;;5071775;28;20439;-63
2022/03/26 10:41:00;;;;;;;24.03;21.53;;;52.00;2.90;;;;;;5058275;28;20437;-63
2022/03/26 10:43:27;;;;;;;23.23;21.07;;;52.20;3.30;;;;;;5050852;28;20467;-63
2022/03/26 10:45:57;;;;;;;23.40;21.37;;;52.40;2.90;;;;;;5070002;28;20527;-63
2022/03/26 10:48:25;;;;;;;22.50;20.60;;;52.20;3.00;;;;;;5058962;28;20479;-63
2022/03/26 10:50:58;;;;;;;21.97;20.07;;;51.90;3.00;;;;;;5061614;28;20432;-63
2022/03/26 10:53:34;;;;;;;22.37;20.30;;;51.80;3.30;;;;;;5072494;28;20439;-62
2022/03/26 10:56:03;;;;;;;22.70;20.60;;;51.80;2.80;;;;;;5061945;28;20455;-64
2022/03/26 10:58:31;;;;;;;20.93;19.10;;;51.60;3.00;;;;;;5054923;28;20437;-63
2022/03/26 11:01:01;;;;;;;23.43;21.27;;;51.70;2.70;;;;;;5052988;28;20803;-64
2022/03/26 11:03:28;;;;;;;22.77;20.87;;;51.80;2.70;;;;;;5053113;28;20445;-63
2022/03/26 11:05:58;;;;;;;21.27;19.57;;;51.70;2.60;;;;;;5052929;28;20436;-63
2022/03/26 11:08:29;;;;;;;22.27;20.27;;;51.80;2.80;;;;;;5053053;28;20491;-64
2022/03/26 11:10:58;;;;;;;21.77;20.00;;;51.60;2.90;;;;;;5052994;28;20487;-65
2022/03/26 11:13:27;;;;;;;22.40;20.33;;;51.80;2.70;;;;;;5056040;28;20505;-63
2022/03/26 11:15:58;;;;;;;22.63;19.97;;;51.80;2.80;;;;;;5052224;28;20448;-64
2022/03/26 11:18:47;;;;;;;21.50;19.37;;;52.00;2.90;;;;;;5065831;28;20444;-63
2022/03/26 11:21:44;;;;;;;22.67;19.90;;;52.60;2.70;;;;;;5056223;28;20433;-65
2022/03/26 11:24:41;;;;;;;22.40;20.33;;;52.50;2.60;;;;;;5042910;28;20481;-63
2022/03/26 11:27:29;;;;;;;21.23;19.20;;;52.30;2.50;;;;;;5055511;28;20557;-64
2022/03/26 11:30:04;;;;;;;19.80;17.80;;;52.10;2.20;;;;;;5055693;28;20475;-64
2022/03/26 11:32:36;;;;;;;20.03;18.27;;;52.20;2.90;;;;;;5054769;28;20935;-64
2022/03/26 11:35:05;;;;;;;20.27;18.47;;;52.40;2.70;;;;;;5055528;28;20523;-63
2022/03/26 11:37:33;;;;;;;18.63;16.80;;;51.90;2.10;;;;;;5055439;28;20472;-63
2022/03/26 11:40:00;;;;;;;19.93;18.27;;;51.80;2.80;;;;;;5055241;28;20571;-63
2022/03/26 11:42:35;;;;;;;20.83;18.67;;;51.70;2.70;;;;;;5055414;28;20480;-64
2022/03/26 11:51:22;;;;;;;20.37;18.47;;;52.10;2.70;;;;;;5012963;28;20431;-63
2022/03/26 11:53:58;;;;;;;20.03;18.13;;;51.80;2.20;;;;;;4994564;28;20860;-63
2022/03/26 11:56:26;;;;;;;19.57;17.67;;;51.60;2.60;;;;;;5040894;28;20779;-63
2022/03/26 11:59:10;;;;;;;19.07;17.47;;;51.20;2.40;;;;;;5054398;28;20468;-63
2022/03/26 12:01:38;;;;;;;23.63;20.60;;;51.20;2.60;;;;;;5054879;28;20469;-63
2022/03/26 12:04:12;;;;;;;19.63;18.03;;;50.70;2.60;;;;;;5054539;28;20480;-63
2022/03/26 12:06:44;;;;;;;23.03;20.70;;;50.40;2.50;;;;;;5054594;28;20473;-64
2022/03/26 12:09:28;;;;;;;22.10;20.20;;;50.10;2.50;;;;;;5054612;28;20524;-62
2022/03/26 12:12:15;;;;;;;23.37;21.30;;;49.90;2.40;;;;;;5054580;28;20447;-64
2022/03/26 12:15:15;;;;;;;23.00;21.00;;;49.40;2.60;;;;;;5054586;28;20452;-63
2022/03/26 12:17:43;;;;;;;22.53;20.20;;;49.10;2.70;;;;;;5054414;28;20496;-63
2022/03/26 12:20:26;;;;;;;24.57;22.43;;;48.50;3.00;;;;;;5054532;28;20452;-63
2022/03/26 12:23:06;;;;;;;22.43;20.13;;;47.60;2.60;;;;;;5054562;28;20977;-63
2022/03/26 12:25:49;;;;;;;21.90;20.00;;;47.50;3.40;;;;;;5034260;28;20437;-63
2022/03/26 12:28:18;;;;;;;23.03;20.90;;;47.60;3.20;;;;;;5047015;28;20480;-63
2022/03/26 12:30:52;;;;;;;21.23;19.33;;;47.50;3.00;;;;;;5054013;28;20826;-63
2022/03/26 12:33:20;;;;;;;22.27;20.37;;;47.70;3.10;;;;;;5053861;28;20503;-63
2022/03/26 12:35:49;;;;;;;22.90;20.80;;;47.50;3.10;;;;;;5054692;28;20829;-63
2022/03/26 12:38:17;;;;;;;21.23;19.33;;;47.00;2.70;;;;;;5069746;28;20487;-68
2022/03/26 12:40:54;;;;;;;21.27;19.47;;;46.40;3.10;;;;;;5073881;28;20444;-62
2022/03/26 12:43:21;;;;;;;22.10;20.00;;;46.00;3.60;;;;;;5072535;28;20471;-63
2022/03/26 12:45:48;;;;;;;23.03;20.93;;;45.80;3.00;;;;;;5073227;28;20497;-62
2022/03/26 12:48:16;;;;;;;22.37;20.13;;;45.80;3.20;;;;;;5073544;28;20552;-62
2022/03/26 12:50:45;;;;;;;22.47;20.43;;;45.60;3.30;;;;;;5067733;28;20492;-62
2022/03/26 12:53:14;;;;;;;20.40;18.40;;;45.40;3.70;;;;;;5074318;28;20436;-62